sensor_id;sensor_type;location;lat;lon;timestamp;pressure;altitude;pressure_sealevel;temperature;humidity
55687;BME280;41911;52.362;4.978;2023-02-19T00:01:30;101732.35;;;8.89;55.10
55687;BME280;41911;52.362;4.978;2023-02-19T00:02:02;101731.97;;;9.13;55.12
55687;BME280;41911;52.362;4.978;2023-02-19T00:02:35;101722.24;;;8.92;55.52
55687;BME280;41911;52.362;4.978;2023-02-19T00:03:06;101726.77;;;9.36;55.03
55687;BME280;41911;52.362;4.978;2023-02-19T00:03:37;101730.03;;;9.55;54.47
55687;BME280;41911;52.362;4.978;2023-02-19T00:04:12;101734.62;;;9.15;55.02
55687;BME280;41911;52.362;4.978;2023-02-19T00:04:43;101731.03;;;8.54;56.09
55687;BME280;41911;52.362;4.978;2023-02-19T00:05:14;101734.19;;;9.01;55.68
55687;BME280;41911;52.362;4.978;2023-02-19T00:05:45;101731.16;;;9.38;55.32
55687;BME280;41911;52.362;4.978;2023-02-19T00:06:16;101731.09;;;9.23;55.10
55687;BME280;41911;52.362;4.978;2023-02-19T00:06:48;101728.23;;;9.13;55.34
55687;BME280;41911;52.362;4.978;2023-02-19T00:07:19;101729.63;;;9.63;54.93
55687;BME280;41911;52.362;4.978;2023-02-19T00:07:50;101729.22;;;9.45;54.67
55687;BME280;41911;52.362;4.978;2023-02-19T00:08:21;101726.83;;;9.41;54.79
55687;BME280;41911;52.362;4.978;2023-02-19T00:08:53;101722.35;;;9.27;55.37
55687;BME280;41911;52.362;4.978;2023-02-19T00:09:24;101726.17;;;9.10;55.61
55687;BME280;41911;52.362;4.978;2023-02-19T00:09:55;101728.17;;;8.64;55.60
55687;BME280;41911;52.362;4.978;2023-02-19T00:10:26;101729.41;;;8.65;56.03
55687;BME280;41911;52.362;4.978;2023-02-19T00:11:01;101731.68;;;8.80;55.90
55687;BME280;41911;52.362;4.978;2023-02-19T00:11:33;101730.48;;;8.71;55.94
55687;BME280;41911;52.362;4.978;2023-02-19T00:12:04;101737.00;;;8.28;57.26
55687;BME280;41911;52.362;4.978;2023-02-19T00:12:35;101727.47;;;8.92;57.03
55687;BME280;41911;52.362;4.978;2023-02-19T00:13:06;101732.34;;;9.12;56.62
55687;BME280;41911;52.362;4.978;2023-02-19T00:13:40;101730.18;;;9.11;56.69
55687;BME280;41911;52.362;4.978;2023-02-19T00:14:14;101730.28;;;9.34;56.35
55687;BME280;41911;52.362;4.978;2023-02-19T00:14:46;101731.51;;;9.32;56.29
55687;BME280;41911;52.362;4.978;2023-02-19T00:15:17;101734.40;;;8.74;56.75
55687;BME280;41911;52.362;4.978;2023-02-19T00:15:48;101729.43;;;9.06;56.48
55687;BME280;41911;52.362;4.978;2023-02-19T00:16:21;101735.56;;;8.79;56.65
55687;BME280;41911;52.362;4.978;2023-02-19T00:16:52;101738.49;;;8.76;57.30
55687;BME280;41911;52.362;4.978;2023-02-19T00:17:23;101732.86;;;9.19;56.81
55687;BME280;41911;52.362;4.978;2023-02-19T00:17:54;101745.47;;;9.13;56.80
55687;BME280;41911;52.362;4.978;2023-02-19T00:18:25;101744.79;;;8.63;57.51
55687;BME280;41911;52.362;4.978;2023-02-19T00:18:57;101747.07;;;8.50;57.91
55687;BME280;41911;52.362;4.978;2023-02-19T00:19:29;101744.76;;;8.49;58.16
55687;BME280;41911;52.362;4.978;2023-02-19T00:20:00;101742.20;;;8.89;57.59
55687;BME280;41911;52.362;4.978;2023-02-19T00:20:30;101750.75;;;8.82;57.46
55687;BME280;41911;52.362;4.978;2023-02-19T00:21:02;101748.21;;;8.65;57.76
55687;BME280;41911;52.362;4.978;2023-02-19T00:21:33;101745.56;;;8.04;58.82
55687;BME280;41911;52.362;4.978;2023-02-19T00:22:04;101747.98;;;7.70;59.45
55687;BME280;41911;52.362;4.978;2023-02-19T00:22:35;101747.31;;;7.72;59.57
55687;BME280;41911;52.362;4.978;2023-02-19T00:23:06;101753.43;;;7.75;59.46
55687;BME280;41911;52.362;4.978;2023-02-19T00:23:37;101743.32;;;7.87;59.94
55687;BME280;41911;52.362;4.978;2023-02-19T00:24:10;101743.89;;;8.09;59.12
55687;BME280;41911;52.362;4.978;2023-02-19T00:24:42;101745.63;;;8.72;58.51
55687;BME280;41911;52.362;4.978;2023-02-19T00:25:13;101745.54;;;8.57;58.20
55687;BME280;41911;52.362;4.978;2023-02-19T00:25:44;101744.29;;;8.32;59.14
55687;BME280;41911;52.362;4.978;2023-02-19T00:26:15;101749.41;;;8.58;58.75
55687;BME280;41911;52.362;4.978;2023-02-19T00:26:47;101746.02;;;8.10;59.06
55687;BME280;41911;52.362;4.978;2023-02-19T00:27:18;101747.55;;;8.22;59.08
55687;BME280;41911;52.362;4.978;2023-02-19T00:27:49;101748.81;;;8.10;59.12
55687;BME280;41911;52.362;4.978;2023-02-19T00:28:21;101750.42;;;8.24;58.89
55687;BME280;41911;52.362;4.978;2023-02-19T00:28:53;101751.76;;;8.51;59.39
55687;BME280;41911;52.362;4.978;2023-02-19T00:29:24;101753.68;;;8.60;58.95
55687;BME280;41911;52.362;4.978;2023-02-19T00:29:55;101752.49;;;8.24;58.89
55687;BME280;41911;52.362;4.978;2023-02-19T00:30:26;101753.19;;;8.38;59.10
55687;BME280;41911;52.362;4.978;2023-02-19T00:31:03;101760.94;;;8.22;59.31
55687;BME280;41911;52.362;4.978;2023-02-19T00:31:35;101757.54;;;7.96;59.86
55687;BME280;41911;52.362;4.978;2023-02-19T00:32:06;101749.93;;;7.63;60.53
55687;BME280;41911;52.362;4.978;2023-02-19T00:32:37;101750.46;;;7.79;60.36
55687;BME280;41911;52.362;4.978;2023-02-19T00:33:08;101751.68;;;8.43;60.00
55687;BME280;41911;52.362;4.978;2023-02-19T00:33:39;101753.28;;;7.81;60.34
55687;BME280;41911;52.362;4.978;2023-02-19T00:34:10;101752.02;;;7.89;60.39
55687;BME280;41911;52.362;4.978;2023-02-19T00:34:42;101749.19;;;8.51;59.92
55687;BME280;41911;52.362;4.978;2023-02-19T00:35:13;101750.95;;;8.45;59.26
55687;BME280;41911;52.362;4.978;2023-02-19T00:35:44;101750.94;;;8.99;58.53
55687;BME280;41911;52.362;4.978;2023-02-19T00:36:15;101751.93;;;9.09;58.17
55687;BME280;41911;52.362;4.978;2023-02-19T00:36:46;101754.16;;;8.30;58.79
55687;BME280;41911;52.362;4.978;2023-02-19T00:37:17;101752.77;;;8.71;58.85
55687;BME280;41911;52.362;4.978;2023-02-19T00:37:48;101752.63;;;8.59;58.54
55687;BME280;41911;52.362;4.978;2023-02-19T00:38:19;101754.65;;;8.77;58.45
55687;BME280;41911;52.362;4.978;2023-02-19T00:38:50;101755.82;;;8.40;58.61
55687;BME280;41911;52.362;4.978;2023-02-19T00:39:21;101755.23;;;8.43;58.78
55687;BME280;41911;52.362;4.978;2023-02-19T00:39:52;101760.55;;;8.37;58.80
55687;BME280;41911;52.362;4.978;2023-02-19T00:40:23;101756.75;;;8.74;58.80
55687;BME280;41911;52.362;4.978;2023-02-19T00:40:54;101755.84;;;8.85;58.15
55687;BME280;41911;52.362;4.978;2023-02-19T00:41:25;101757.49;;;9.05;57.91
55687;BME280;41911;52.362;4.978;2023-02-19T00:41:56;101756.12;;;9.36;57.71
55687;BME280;41911;52.362;4.978;2023-02-19T00:42:27;101755.68;;;8.46;58.52
55687;BME280;41911;52.362;4.978;2023-02-19T00:42:58;101757.80;;;8.78;58.56
55687;BME280;41911;52.362;4.978;2023-02-19T00:43:29;101759.38;;;8.40;58.66
55687;BME280;41911;52.362;4.978;2023-02-19T00:44:03;101757.31;;;8.04;59.35
55687;BME280;41911;52.362;4.978;2023-02-19T00:44:36;101759.54;;;8.62;58.93
55687;BME280;41911;52.362;4.978;2023-02-19T00:45:07;101755.82;;;8.76;58.63
55687;BME280;41911;52.362;4.978;2023-02-19T00:45:38;101759.43;;;8.62;58.57
55687;BME280;41911;52.362;4.978;2023-02-19T00:46:09;101752.41;;;8.84;58.67
55687;BME280;41911;52.362;4.978;2023-02-19T00:46:42;101759.65;;;8.59;59.11
55687;BME280;41911;52.362;4.978;2023-02-19T00:47:14;101755.62;;;8.55;58.68
55687;BME280;41911;52.362;4.978;2023-02-19T00:47:46;101755.46;;;8.59;58.48
55687;BME280;41911;52.362;4.978;2023-02-19T00:48:17;101756.38;;;8.56;58.47
55687;BME280;41911;52.362;4.978;2023-02-19T00:48:49;101755.51;;;8.19;59.00
55687;BME280;41911;52.362;4.978;2023-02-19T00:49:21;101760.16;;;8.21;59.15
55687;BME280;41911;52.362;4.978;2023-02-19T00:49:54;101760.63;;;8.31;59.07
55687;BME280;41911;52.362;4.978;2023-02-19T00:50:25;101759.40;;;8.58;58.96
55687;BME280;41911;52.362;4.978;2023-02-19T00:50:58;101764.11;;;8.69;58.80
55687;BME280;41911;52.362;4.978;2023-02-19T00:51:32;101766.02;;;8.42;58.85
55687;BME280;41911;52.362;4.978;2023-02-19T00:52:03;101764.37;;;7.96;59.57
55687;BME280;41911;52.362;4.978;2023-02-19T00:52:35;101764.78;;;8.43;59.26
55687;BME280;41911;52.362;4.978;2023-02-19T00:53:06;101758.78;;;8.65;58.70
55687;BME280;41911;52.362;4.978;2023-02-19T00:53:37;101770.23;;;8.30;58.88
55687;BME280;41911;52.362;4.978;2023-02-19T00:54:09;101763.50;;;8.15;59.62
55687;BME280;41911;52.362;4.978;2023-02-19T00:54:40;101762.21;;;8.17;60.21
55687;BME280;41911;52.362;4.978;2023-02-19T00:55:11;101763.65;;;8.01;60.06
55687;BME280;41911;52.362;4.978;2023-02-19T00:55:42;101770.80;;;7.91;60.37
55687;BME280;41911;52.362;4.978;2023-02-19T00:56:13;101766.44;;;7.88;61.03
55687;BME280;41911;52.362;4.978;2023-02-19T00:56:45;101762.59;;;7.66;61.05
55687;BME280;41911;52.362;4.978;2023-02-19T00:57:16;101764.13;;;7.93;60.47
55687;BME280;41911;52.362;4.978;2023-02-19T00:57:49;101765.94;;;8.16;60.04
55687;BME280;41911;52.362;4.978;2023-02-19T00:58:20;101765.08;;;8.19;60.50
55687;BME280;41911;52.362;4.978;2023-02-19T00:58:51;101767.95;;;8.45;60.19
55687;BME280;41911;52.362;4.978;2023-02-19T00:59:22;101768.84;;;7.88;59.81
55687;BME280;41911;52.362;4.978;2023-02-19T00:59:53;101766.87;;;7.68;60.32
55687;BME280;41911;52.362;4.978;2023-02-19T01:00:24;101766.68;;;8.30;59.86
55687;BME280;41911;52.362;4.978;2023-02-19T01:00:55;101769.60;;;8.61;59.30
55687;BME280;41911;52.362;4.978;2023-02-19T01:01:26;101767.12;;;8.69;58.64
55687;BME280;41911;52.362;4.978;2023-02-19T01:01:57;101761.82;;;9.07;58.20
55687;BME280;41911;52.362;4.978;2023-02-19T01:02:28;101762.28;;;9.22;57.84
55687;BME280;41911;52.362;4.978;2023-02-19T01:02:59;101757.33;;;9.28;57.36
55687;BME280;41911;52.362;4.978;2023-02-19T01:03:30;101756.40;;;9.40;57.04
55687;BME280;41911;52.362;4.978;2023-02-19T01:04:01;101751.26;;;9.41;57.13
55687;BME280;41911;52.362;4.978;2023-02-19T01:04:32;101759.92;;;9.18;57.27
55687;BME280;41911;52.362;4.978;2023-02-19T01:05:03;101755.85;;;8.86;57.30
55687;BME280;41911;52.362;4.978;2023-02-19T01:05:34;101749.93;;;8.91;57.69
55687;BME280;41911;52.362;4.978;2023-02-19T01:06:07;101746.80;;;9.11;57.43
55687;BME280;41911;52.362;4.978;2023-02-19T01:06:39;101751.83;;;9.13;56.99
55687;BME280;41911;52.362;4.978;2023-02-19T01:07:10;101751.32;;;8.91;56.71
55687;BME280;41911;52.362;4.978;2023-02-19T01:07:41;101745.58;;;8.86;57.08
55687;BME280;41911;52.362;4.978;2023-02-19T01:08:12;101749.51;;;8.99;57.26
55687;BME280;41911;52.362;4.978;2023-02-19T01:08:43;101748.89;;;8.86;57.52
55687;BME280;41911;52.362;4.978;2023-02-19T01:09:14;101748.29;;;8.91;57.01
55687;BME280;41911;52.362;4.978;2023-02-19T01:09:45;101751.46;;;8.09;57.88
55687;BME280;41911;52.362;4.978;2023-02-19T01:10:17;101750.38;;;8.44;57.80
55687;BME280;41911;52.362;4.978;2023-02-19T01:10:48;101753.58;;;8.53;57.70
55687;BME280;41911;52.362;4.978;2023-02-19T01:11:19;101752.42;;;8.96;57.41
55687;BME280;41911;52.362;4.978;2023-02-19T01:11:50;101749.10;;;9.44;56.77
55687;BME280;41911;52.362;4.978;2023-02-19T01:12:21;101748.61;;;8.88;56.52
55687;BME280;41911;52.362;4.978;2023-02-19T01:12:52;101749.39;;;9.54;56.26
55687;BME280;41911;52.362;4.978;2023-02-19T01:13:23;101748.94;;;8.77;56.95
55687;BME280;41911;52.362;4.978;2023-02-19T01:13:56;101746.86;;;8.82;56.58
55687;BME280;41911;52.362;4.978;2023-02-19T01:14:27;101749.43;;;9.62;56.42
55687;BME280;41911;52.362;4.978;2023-02-19T01:14:58;101748.76;;;9.69;56.11
55687;BME280;41911;52.362;4.978;2023-02-19T01:15:32;101751.48;;;8.48;56.93
55687;BME280;41911;52.362;4.978;2023-02-19T01:16:04;101750.33;;;8.80;57.12
55687;BME280;41911;52.362;4.978;2023-02-19T01:16:35;101755.22;;;9.11;56.83
55687;BME280;41911;52.362;4.978;2023-02-19T01:17:06;101758.24;;;8.72;57.07
55687;BME280;41911;52.362;4.978;2023-02-19T01:17:37;101758.44;;;8.88;56.81
55687;BME280;41911;52.362;4.978;2023-02-19T01:18:09;101758.01;;;9.07;56.62
55687;BME280;41911;52.362;4.978;2023-02-19T01:18:40;101766.30;;;8.73;56.98
55687;BME280;41911;52.362;4.978;2023-02-19T01:19:11;101762.10;;;8.54;56.87
55687;BME280;41911;52.362;4.978;2023-02-19T01:19:42;101760.16;;;9.02;57.10
55687;BME280;41911;52.362;4.978;2023-02-19T01:20:44;101766.12;;;8.73;56.79
55687;BME280;41911;52.362;4.978;2023-02-19T01:21:17;101761.54;;;9.02;56.32
55687;BME280;41911;52.362;4.978;2023-02-19T01:21:49;101760.14;;;9.08;56.14
55687;BME280;41911;52.362;4.978;2023-02-19T01:22:20;101764.45;;;8.66;56.48
55687;BME280;41911;52.362;4.978;2023-02-19T01:22:51;101765.21;;;9.30;56.45
55687;BME280;41911;52.362;4.978;2023-02-19T01:23:22;101764.78;;;8.71;56.53
55687;BME280;41911;52.362;4.978;2023-02-19T01:23:53;101763.16;;;9.16;56.56
55687;BME280;41911;52.362;4.978;2023-02-19T01:24:25;101767.33;;;9.10;56.67
55687;BME280;41911;52.362;4.978;2023-02-19T01:24:57;101768.16;;;8.68;57.41
55687;BME280;41911;52.362;4.978;2023-02-19T01:25:28;101771.42;;;8.06;57.87
55687;BME280;41911;52.362;4.978;2023-02-19T01:25:59;101769.63;;;8.67;57.53
55687;BME280;41911;52.362;4.978;2023-02-19T01:26:31;101773.66;;;8.88;57.24
55687;BME280;41911;52.362;4.978;2023-02-19T01:27:02;101770.90;;;8.98;56.98
55687;BME280;41911;52.362;4.978;2023-02-19T01:27:33;101772.05;;;8.96;56.50
55687;BME280;41911;52.362;4.978;2023-02-19T01:28:05;101773.41;;;9.56;56.11
55687;BME280;41911;52.362;4.978;2023-02-19T01:28:36;101769.49;;;9.34;55.86
55687;BME280;41911;52.362;4.978;2023-02-19T01:29:07;101769.84;;;9.77;55.81
55687;BME280;41911;52.362;4.978;2023-02-19T01:29:38;101771.10;;;9.19;55.82
55687;BME280;41911;52.362;4.978;2023-02-19T01:30:10;101771.46;;;9.57;55.57
55687;BME280;41911;52.362;4.978;2023-02-19T01:30:41;101777.80;;;9.36;55.76
55687;BME280;41911;52.362;4.978;2023-02-19T01:31:14;101772.05;;;9.10;55.57
55687;BME280;41911;52.362;4.978;2023-02-19T01:31:45;101774.48;;;9.02;55.68
55687;BME280;41911;52.362;4.978;2023-02-19T01:32:16;101774.94;;;9.14;55.96
55687;BME280;41911;52.362;4.978;2023-02-19T01:32:47;101781.62;;;8.29;56.97
55687;BME280;41911;52.362;4.978;2023-02-19T01:33:18;101781.74;;;8.35;57.52
55687;BME280;41911;52.362;4.978;2023-02-19T01:33:51;101777.36;;;8.28;57.27
55687;BME280;41911;52.362;4.978;2023-02-19T01:34:22;101774.93;;;9.27;56.61
55687;BME280;41911;52.362;4.978;2023-02-19T01:34:53;101782.84;;;9.08;56.21
55687;BME280;41911;52.362;4.978;2023-02-19T01:35:24;101781.14;;;9.40;56.23
55687;BME280;41911;52.362;4.978;2023-02-19T01:35:55;101779.14;;;9.28;56.38
55687;BME280;41911;52.362;4.978;2023-02-19T01:36:27;101786.47;;;8.86;56.84
55687;BME280;41911;52.362;4.978;2023-02-19T01:36:58;101791.46;;;8.37;57.94
55687;BME280;41911;52.362;4.978;2023-02-19T01:37:29;101792.02;;;8.21;58.25
55687;BME280;41911;52.362;4.978;2023-02-19T01:38:00;101785.60;;;8.34;58.26
55687;BME280;41911;52.362;4.978;2023-02-19T01:38:31;101783.63;;;8.90;57.57
55687;BME280;41911;52.362;4.978;2023-02-19T01:39:04;101779.41;;;8.95;57.46
55687;BME280;41911;52.362;4.978;2023-02-19T01:39:35;101776.34;;;8.74;57.28
55687;BME280;41911;52.362;4.978;2023-02-19T01:40:08;101780.44;;;8.97;57.37
55687;BME280;41911;52.362;4.978;2023-02-19T01:40:39;101782.80;;;8.23;58.52
55687;BME280;41911;52.362;4.978;2023-02-19T01:41:12;101777.02;;;8.16;58.76
55687;BME280;41911;52.362;4.978;2023-02-19T01:41:43;101778.37;;;8.15;58.96
55687;BME280;41911;52.362;4.978;2023-02-19T01:42:15;101780.17;;;8.35;58.91
55687;BME280;41911;52.362;4.978;2023-02-19T01:42:47;101778.83;;;8.06;59.25
55687;BME280;41911;52.362;4.978;2023-02-19T01:43:18;101778.84;;;8.20;59.00
55687;BME280;41911;52.362;4.978;2023-02-19T01:43:56;101781.83;;;8.35;58.83
55687;BME280;41911;52.362;4.978;2023-02-19T01:45:33;101782.26;;;8.39;58.66
55687;BME280;41911;52.362;4.978;2023-02-19T01:46:05;101781.76;;;8.29;59.04
55687;BME280;41911;52.362;4.978;2023-02-19T01:46:37;101780.22;;;8.33;58.90
55687;BME280;41911;52.362;4.978;2023-02-19T01:47:08;101781.37;;;8.48;58.60
55687;BME280;41911;52.362;4.978;2023-02-19T01:47:39;101781.63;;;8.02;59.13
55687;BME280;41911;52.362;4.978;2023-02-19T01:48:12;101780.37;;;8.19;59.55
55687;BME280;41911;52.362;4.978;2023-02-19T01:48:47;101781.60;;;7.96;59.57
55687;BME280;41911;52.362;4.978;2023-02-19T01:49:22;101781.40;;;8.08;59.45
55687;BME280;41911;52.362;4.978;2023-02-19T01:49:55;101783.88;;;8.56;58.60
55687;BME280;41911;52.362;4.978;2023-02-19T01:50:28;101782.85;;;9.02;58.18
55687;BME280;41911;52.362;4.978;2023-02-19T01:51:06;101781.44;;;8.57;58.54
55687;BME280;41911;52.362;4.978;2023-02-19T01:51:42;101781.23;;;8.31;58.82
55687;BME280;41911;52.362;4.978;2023-02-19T01:52:23;101782.42;;;8.35;58.22
55687;BME280;41911;52.362;4.978;2023-02-19T01:53:02;101780.49;;;8.30;58.88
55687;BME280;41911;52.362;4.978;2023-02-19T01:53:40;101778.14;;;8.76;58.11
55687;BME280;41911;52.362;4.978;2023-02-19T01:54:15;101780.38;;;8.85;57.80
55687;BME280;41911;52.362;4.978;2023-02-19T01:54:48;101776.69;;;9.22;57.65
55687;BME280;41911;52.362;4.978;2023-02-19T01:55:19;101780.81;;;8.69;57.95
55687;BME280;41911;52.362;4.978;2023-02-19T01:55:55;101781.63;;;8.40;58.49
55687;BME280;41911;52.362;4.978;2023-02-19T01:56:29;101777.22;;;8.62;58.34
55687;BME280;41911;52.362;4.978;2023-02-19T01:57:06;101774.97;;;8.38;58.21
55687;BME280;41911;52.362;4.978;2023-02-19T01:57:43;101782.93;;;8.95;57.55
55687;BME280;41911;52.362;4.978;2023-02-19T01:58:15;101785.12;;;8.29;58.43
55687;BME280;41911;52.362;4.978;2023-02-19T01:58:47;101780.30;;;8.59;58.15
55687;BME280;41911;52.362;4.978;2023-02-19T01:59:18;101779.81;;;8.79;57.85
55687;BME280;41911;52.362;4.978;2023-02-19T01:59:51;101785.76;;;8.59;58.06
55687;BME280;41911;52.362;4.978;2023-02-19T02:00:24;101778.78;;;8.24;58.59
55687;BME280;41911;52.362;4.978;2023-02-19T02:00:55;101781.59;;;8.64;58.11
55687;BME280;41911;52.362;4.978;2023-02-19T02:01:26;101781.79;;;8.43;58.24
55687;BME280;41911;52.362;4.978;2023-02-19T02:01:57;101784.26;;;8.71;57.76
55687;BME280;41911;52.362;4.978;2023-02-19T02:02:29;101784.87;;;8.56;57.92
55687;BME280;41911;52.362;4.978;2023-02-19T02:03:00;101788.32;;;7.75;59.22
55687;BME280;41911;52.362;4.978;2023-02-19T02:03:32;101788.05;;;7.97;59.36
55687;BME280;41911;52.362;4.978;2023-02-19T02:04:07;101785.83;;;7.63;59.59
55687;BME280;41911;52.362;4.978;2023-02-19T02:04:38;101790.88;;;7.56;60.30
55687;BME280;41911;52.362;4.978;2023-02-19T02:05:14;101787.70;;;7.75;60.08
55687;BME280;41911;52.362;4.978;2023-02-19T02:05:55;101788.96;;;7.34;60.29
55687;BME280;41911;52.362;4.978;2023-02-19T02:06:29;101790.52;;;7.80;60.41
55687;BME280;41911;52.362;4.978;2023-02-19T02:07:03;101786.00;;;7.20;60.88
55687;BME280;41911;52.362;4.978;2023-02-19T02:07:37;101784.82;;;7.93;60.24
55687;BME280;41911;52.362;4.978;2023-02-19T02:08:09;101786.24;;;7.76;60.33
55687;BME280;41911;52.362;4.978;2023-02-19T02:08:40;101782.76;;;7.97;59.59
55687;BME280;41911;52.362;4.978;2023-02-19T02:09:12;101789.86;;;7.71;60.47
55687;BME280;41911;52.362;4.978;2023-02-19T02:09:43;101793.20;;;7.80;60.04
55687;BME280;41911;52.362;4.978;2023-02-19T02:10:14;101782.52;;;7.75;60.54
55687;BME280;41911;52.362;4.978;2023-02-19T02:10:46;101789.06;;;8.07;60.04
55687;BME280;41911;52.362;4.978;2023-02-19T02:11:18;101787.00;;;7.68;60.71
55687;BME280;41911;52.362;4.978;2023-02-19T02:11:51;101793.05;;;7.47;61.04
55687;BME280;41911;52.362;4.978;2023-02-19T02:12:22;101787.04;;;7.60;60.88
55687;BME280;41911;52.362;4.978;2023-02-19T02:12:57;101793.32;;;7.17;61.19
55687;BME280;41911;52.362;4.978;2023-02-19T02:13:29;101788.77;;;7.64;60.78
55687;BME280;41911;52.362;4.978;2023-02-19T02:14:03;101791.26;;;7.53;61.04
55687;BME280;41911;52.362;4.978;2023-02-19T02:14:36;101791.80;;;7.49;60.37
55687;BME280;41911;52.362;4.978;2023-02-19T02:15:08;101792.09;;;7.95;60.17
55687;BME280;41911;52.362;4.978;2023-02-19T02:15:49;101795.45;;;7.73;59.94
55687;BME280;41911;52.362;4.978;2023-02-19T02:16:23;101786.63;;;7.69;60.34
55687;BME280;41911;52.362;4.978;2023-02-19T02:17:03;101794.95;;;7.25;61.29
55687;BME280;41911;52.362;4.978;2023-02-19T02:17:47;101796.74;;;6.64;61.74
55687;BME280;41911;52.362;4.978;2023-02-19T02:18:29;101791.34;;;7.03;61.68
55687;BME280;41911;52.362;4.978;2023-02-19T02:19:11;101790.05;;;7.36;61.23
55687;BME280;41911;52.362;4.978;2023-02-19T02:20:07;101787.41;;;7.28;61.10
55687;BME280;41911;52.362;4.978;2023-02-19T02:21:05;101792.94;;;7.79;60.47
55687;BME280;41911;52.362;4.978;2023-02-19T02:21:54;101788.77;;;7.79;60.18
55687;BME280;41911;52.362;4.978;2023-02-19T02:22:33;101789.36;;;7.80;59.77
55687;BME280;41911;52.362;4.978;2023-02-19T02:23:14;101791.44;;;7.80;59.84
55687;BME280;41911;52.362;4.978;2023-02-19T02:24:03;101789.39;;;8.01;59.65
55687;BME280;41911;52.362;4.978;2023-02-19T02:25:02;101788.45;;;7.89;59.82
55687;BME280;41911;52.362;4.978;2023-02-19T02:26:24;101789.24;;;7.85;59.58
55687;BME280;41911;52.362;4.978;2023-02-19T02:27:21;101797.47;;;7.25;61.27
55687;BME280;41911;52.362;4.978;2023-02-19T02:28:11;101792.60;;;6.86;61.75
55687;BME280;41911;52.362;4.978;2023-02-19T02:31:43;101803.68;;;7.45;61.85
55687;BME280;41911;52.362;4.978;2023-02-19T02:32:22;101796.10;;;6.92;62.12
55687;BME280;41911;52.362;4.978;2023-02-19T02:33:00;101796.14;;;6.79;62.04
55687;BME280;41911;52.362;4.978;2023-02-19T02:33:37;101798.91;;;7.30;60.97
55687;BME280;41911;52.362;4.978;2023-02-19T02:34:15;101793.46;;;7.75;60.93
55687;BME280;41911;52.362;4.978;2023-02-19T02:34:51;101791.24;;;7.35;61.30
55687;BME280;41911;52.362;4.978;2023-02-19T02:35:29;101799.32;;;7.40;61.61
55687;BME280;41911;52.362;4.978;2023-02-19T02:36:05;101803.18;;;7.07;62.09
55687;BME280;41911;52.362;4.978;2023-02-19T02:36:38;101803.72;;;7.17;62.27
55687;BME280;41911;52.362;4.978;2023-02-19T02:37:13;101804.35;;;7.31;61.96
55687;BME280;41911;52.362;4.978;2023-02-19T02:37:46;101805.42;;;6.98;62.81
55687;BME280;41911;52.362;4.978;2023-02-19T02:38:20;101807.28;;;7.44;62.35
55687;BME280;41911;52.362;4.978;2023-02-19T02:38:54;101803.24;;;7.19;62.59
55687;BME280;41911;52.362;4.978;2023-02-19T02:39:27;101804.49;;;6.68;63.79
55687;BME280;41911;52.362;4.978;2023-02-19T02:40:01;101797.37;;;7.16;63.21
55687;BME280;41911;52.362;4.978;2023-02-19T02:40:33;101803.31;;;7.49;62.66
55687;BME280;41911;52.362;4.978;2023-02-19T02:41:05;101807.06;;;7.27;63.07
55687;BME280;41911;52.362;4.978;2023-02-19T02:41:41;101800.22;;;7.18;63.29
55687;BME280;41911;52.362;4.978;2023-02-19T02:42:13;101809.71;;;6.51;64.55
55687;BME280;41911;52.362;4.978;2023-02-19T02:42:44;101806.06;;;6.21;65.25
55687;BME280;41911;52.362;4.978;2023-02-19T02:43:15;101800.20;;;6.31;65.42
55687;BME280;41911;52.362;4.978;2023-02-19T02:43:45;101795.97;;;6.95;64.26
55687;BME280;41911;52.362;4.978;2023-02-19T02:44:16;101801.03;;;7.09;63.26
55687;BME280;41911;52.362;4.978;2023-02-19T02:44:47;101802.76;;;7.49;62.94
55687;BME280;41911;52.362;4.978;2023-02-19T02:45:27;101792.55;;;7.06;63.21
55687;BME280;41911;52.362;4.978;2023-02-19T02:45:58;101796.67;;;6.59;63.52
55687;BME280;41911;52.362;4.978;2023-02-19T02:46:34;101800.47;;;7.24;63.63
55687;BME280;41911;52.362;4.978;2023-02-19T02:47:06;101794.43;;;6.96;63.54
55687;BME280;41911;52.362;4.978;2023-02-19T02:47:42;101803.39;;;7.20;62.84
55687;BME280;41911;52.362;4.978;2023-02-19T02:48:21;101796.64;;;6.75;63.41
55687;BME280;41911;52.362;4.978;2023-02-19T02:48:56;101802.68;;;7.34;63.46
55687;BME280;41911;52.362;4.978;2023-02-19T02:49:27;101801.44;;;7.16;63.45
55687;BME280;41911;52.362;4.978;2023-02-19T02:49:59;101808.35;;;6.66;63.95
55687;BME280;41911;52.362;4.978;2023-02-19T02:50:33;101806.15;;;7.11;63.77
55687;BME280;41911;52.362;4.978;2023-02-19T02:51:14;101796.61;;;6.95;63.86
55687;BME280;41911;52.362;4.978;2023-02-19T02:51:49;101805.66;;;6.85;64.04
55687;BME280;41911;52.362;4.978;2023-02-19T02:52:24;101805.66;;;6.08;64.39
55687;BME280;41911;52.362;4.978;2023-02-19T02:52:58;101806.48;;;7.28;63.16
55687;BME280;41911;52.362;4.978;2023-02-19T02:53:33;101803.18;;;7.08;63.01
55687;BME280;41911;52.362;4.978;2023-02-19T02:54:10;101807.69;;;7.46;62.70
55687;BME280;41911;52.362;4.978;2023-02-19T02:54:41;101799.03;;;6.72;63.16
55687;BME280;41911;52.362;4.978;2023-02-19T02:55:12;101802.21;;;7.23;62.51
55687;BME280;41911;52.362;4.978;2023-02-19T02:55:48;101803.97;;;6.87;62.94
55687;BME280;41911;52.362;4.978;2023-02-19T02:56:21;101796.30;;;6.73;63.51
55687;BME280;41911;52.362;4.978;2023-02-19T02:56:54;101811.98;;;6.64;64.42
55687;BME280;41911;52.362;4.978;2023-02-19T02:57:25;101808.80;;;7.14;63.95
55687;BME280;41911;52.362;4.978;2023-02-19T02:57:56;101807.69;;;7.03;63.35
55687;BME280;41911;52.362;4.978;2023-02-19T02:58:28;101802.79;;;7.80;62.59
55687;BME280;41911;52.362;4.978;2023-02-19T02:59:01;101806.37;;;7.20;63.00
55687;BME280;41911;52.362;4.978;2023-02-19T02:59:37;101812.68;;;6.64;63.25
55687;BME280;41911;52.362;4.978;2023-02-19T03:00:10;101821.64;;;6.48;63.75
55687;BME280;41911;52.362;4.978;2023-02-19T03:00:43;101812.58;;;6.80;63.78
55687;BME280;41911;52.362;4.978;2023-02-19T03:01:21;101809.74;;;7.00;63.16